Observation data for Reese Center on 05/17/2018      Previous  Date  Next       Current Mesonet Observations  Soil Data  Daily Summary Page  Observations in Plain Language
KREE 170500Z 12014KT 23/11 A2998 RMK A01 T02340106  RH  045%=      5-min Rain = 0
KREE 170505Z 13013KT 23/11 A2998 RMK A01 T02320107  RH  046%=      5-min Rain = 0
KREE 170510Z 13014G20KT 23/11 A2998 RMK A01 T02290108  RH  047%=      5-min Rain = 0
KREE 170515Z 13014G19KT 23/11 A2999 RMK A01 T02270109  RH  048%=      5-min Rain = 0
KREE 170520Z 13015KT 23/11 A2999 RMK A01 T02250111  RH  049%=      5-min Rain = 0
KREE 170525Z 13013KT 22/11 A2998 RMK A01 T02230113  RH  051%=      5-min Rain = 0
KREE 170530Z 13013KT 22/11 A2998 RMK A01 T02210113  RH  051%=      5-min Rain = 0
KREE 170535Z 13014KT 22/11 A2998 RMK A01 T02200114  RH  052%=      5-min Rain = 0
KREE 170540Z 13013KT 22/11 A2998 RMK A01 T02190114  RH  052%=      5-min Rain = 0
KREE 170545Z 13014KT 22/11 A2998 RMK A01 T02180114  RH  053%=      5-min Rain = 0
KREE 170550Z 14013KT 22/12 A2998 RMK A01 T02170115  RH  053%=      5-min Rain = 0
KREE 170555Z 13013G18KT 22/12 A2998 RMK A01 T02160115  RH  053%=      5-min Rain = 0
KREE 170600Z 13013KT 22/12 A2998 RMK A01 T02150115  RH  054%=      5-min Rain = 0
KREE 170605Z 14012KT 22/12 A2998 RMK A01 T02150115  RH  054%=      5-min Rain = 0
KREE 170610Z 13013KT 21/12 A2998 RMK A01 T02140115  RH  054%=      5-min Rain = 0
KREE 170615Z 13011G16KT 21/12 A2998 RMK A01 T02130115  RH  054%=      5-min Rain = 0
KREE 170620Z 13013KT 21/12 A2998 RMK A01 T02120116  RH  055%=      5-min Rain = 0
KREE 170625Z 13012G18KT 21/12 A2998 RMK A01 T02110117  RH  056%=      5-min Rain = 0
KREE 170630Z 13013KT 21/12 A2998 RMK A01 T02100118  RH  057%=      5-min Rain = 0
KREE 170635Z 13013KT 21/12 A2998 RMK A01 T02090118  RH  057%=      5-min Rain = 0
KREE 170640Z 13013KT 21/12 A2998 RMK A01 T02090119  RH  057%=      5-min Rain = 0
KREE 170645Z 13012KT 21/12 A2998 RMK A01 T02070119  RH  058%=      5-min Rain = 0
KREE 170650Z 13011KT 21/12 A2998 RMK A01 T02060119  RH  058%=      5-min Rain = 0
KREE 170655Z 13011G16KT 21/12 A2998 RMK A01 T02050119  RH  059%=      5-min Rain = 0
KREE 170700Z 14012KT 21/12 A2998 RMK A01 T02050120  RH  059%=      5-min Rain = 0
KREE 170705Z 14012KT 21/12 A2998 RMK A01 T02050121  RH  060%=      5-min Rain = 0
KREE 170710Z 14012KT 20/12 A2998 RMK A01 T02040122  RH  060%=      5-min Rain = 0
KREE 170715Z 14013KT 20/12 A2998 RMK A01 T02030123  RH  061%=      5-min Rain = 0
KREE 170720Z 15012KT 20/12 A2997 RMK A01 T02020123  RH  061%=      5-min Rain = 0
KREE 170725Z 14012KT 20/12 A2997 RMK A01 T02010123  RH  062%=      5-min Rain = 0
KREE 170730Z 14012KT 20/12 A2997 RMK A01 T02000123  RH  062%=      5-min Rain = 0
KREE 170735Z 14011KT 20/12 A2997 RMK A01 T01990123  RH  063%=      5-min Rain = 0
KREE 170740Z 14011KT 20/12 A2997 RMK A01 T01980123  RH  063%=      5-min Rain = 0
KREE 170745Z 14012KT 20/12 A2997 RMK A01 T01980124  RH  064%=      5-min Rain = 0
KREE 170750Z 14011KT 20/12 A2996 RMK A01 T01970124  RH  064%=      5-min Rain = 0
KREE 170755Z 14011KT 20/12 A2996 RMK A01 T01970124  RH  064%=      5-min Rain = 0
KREE 170800Z 14011KT 20/12 A2996 RMK A01 T01960124  RH  064%=      5-min Rain = 0
KREE 170805Z 14010KT 20/12 A2996 RMK A01 T01960124  RH  064%=      5-min Rain = 0
KREE 170810Z 14009KT 20/12 A2996 RMK A01 T01950123  RH  065%=      5-min Rain = 0
KREE 170815Z 14009KT 19/12 A2996 RMK A01 T01940123  RH  065%=      5-min Rain = 0
KREE 170820Z 13009KT 19/12 A2996 RMK A01 T01940123  RH  065%=      5-min Rain = 0
KREE 170825Z 13009KT 19/12 A2996 RMK A01 T01930124  RH  065%=      5-min Rain = 0
KREE 170830Z 13009KT 19/12 A2996 RMK A01 T01930124  RH  065%=      5-min Rain = 0
KREE 170835Z 13010KT 19/12 A2996 RMK A01 T01930124  RH  065%=      5-min Rain = 0
KREE 170840Z 13010KT 19/12 A2996 RMK A01 T01930124  RH  066%=      5-min Rain = 0
KREE 170845Z 14011KT 19/12 A2995 RMK A01 T01930124  RH  065%=      5-min Rain = 0
KREE 170850Z 13012KT 19/12 A2995 RMK A01 T01930124  RH  065%=      5-min Rain = 0
KREE 170855Z 14012KT 19/12 A2995 RMK A01 T01940124  RH  065%=      5-min Rain = 0
KREE 170900Z 14011KT 19/13 A2995 RMK A01 T01940125  RH  066%=      5-min Rain = 0
KREE 170905Z 14011KT 19/13 A2996 RMK A01 T01930125  RH  066%=      5-min Rain = 0
KREE 170910Z 14011KT 19/13 A2995 RMK A01 T01920125  RH  066%=      5-min Rain = 0
KREE 170915Z 14010KT 19/13 A2995 RMK A01 T01910125  RH  067%=      5-min Rain = 0
KREE 170920Z 14011KT 19/13 A2995 RMK A01 T01910125  RH  067%=      5-min Rain = 0
KREE 170925Z 14011KT 19/13 A2995 RMK A01 T01910125  RH  067%=      5-min Rain = 0
KREE 170930Z 14011KT 19/13 A2995 RMK A01 T01900126  RH  067%=      5-min Rain = 0
KREE 170935Z 14012KT 19/13 A2995 RMK A01 T01900126  RH  068%=      5-min Rain = 0
KREE 170940Z 14011KT 19/13 A2995 RMK A01 T01890126  RH  068%=      5-min Rain = 0
KREE 170945Z 14011KT 19/13 A2995 RMK A01 T01890126  RH  068%=      5-min Rain = 0
KREE 170950Z 14011KT 19/13 A2995 RMK A01 T01890126  RH  068%=      5-min Rain = 0
KREE 170955Z 14011KT 19/13 A2995 RMK A01 T01880126  RH  068%=      5-min Rain = 0
KREE 171000Z 14011KT 19/13 A2996 RMK A01 T01870126  RH  069%=      5-min Rain = 0
KREE 171005Z 14012KT 19/13 A2996 RMK A01 T01870126  RH  069%=      5-min Rain = 0
KREE 171010Z 14010KT 19/13 A2996 RMK A01 T01860126  RH  069%=      5-min Rain = 0
KREE 171015Z 14010KT 19/13 A2996 RMK A01 T01850126  RH  070%=      5-min Rain = 0
KREE 171020Z 13010KT 19/13 A2996 RMK A01 T01850126  RH  069%=      5-min Rain = 0
KREE 171025Z 13010KT 19/13 A2996 RMK A01 T01850126  RH  070%=      5-min Rain = 0
KREE 171030Z 13009KT 18/13 A2996 RMK A01 T01840127  RH  071%=      5-min Rain = 0
KREE 171035Z 14010KT 18/13 A2996 RMK A01 T01830127  RH  071%=      5-min Rain = 0
KREE 171040Z 14011KT 18/13 A2996 RMK A01 T01830127  RH  071%=      5-min Rain = 0
KREE 171045Z 14010KT 18/13 A2996 RMK A01 T01820128  RH  072%=      5-min Rain = 0
KREE 171050Z 13010KT 18/13 A2996 RMK A01 T01820128  RH  072%=      5-min Rain = 0
KREE 171055Z 13010G15KT 18/13 A2996 RMK A01 T01810128  RH  073%=      5-min Rain = 0
KREE 171100Z 12011KT 18/13 A2996 RMK A01 T01820129  RH  072%=      5-min Rain = 0
KREE 171105Z 12009KT 18/13 A2996 RMK A01 T01810129  RH  073%=      5-min Rain = 0
KREE 171110Z 12010KT 18/13 A2996 RMK A01 T01800130  RH  074%=      5-min Rain = 0
KREE 171115Z 12010KT 18/13 A2996 RMK A01 T01800130  RH  074%=      5-min Rain = 0
KREE 171120Z 12010KT 18/13 A2996 RMK A01 T01800130  RH  074%=      5-min Rain = 0
KREE 171125Z 12010KT 18/13 A2995 RMK A01 T01790130  RH  074%=      5-min Rain = 0
KREE 171130Z 12011KT 18/13 A2995 RMK A01 T01790130  RH  075%=      5-min Rain = 0
KREE 171135Z 12009KT 18/13 A2996 RMK A01 T01780130  RH  075%=      5-min Rain = 0
KREE 171140Z 12011KT 18/13 A2996 RMK A01 T01770130  RH  075%=      5-min Rain = 0
KREE 171145Z 12010KT 18/13 A2995 RMK A01 T01780130  RH  075%=      5-min Rain = 0
KREE 171150Z 12010KT 18/13 A2996 RMK A01 T01780130  RH  075%=      5-min Rain = 0
KREE 171155Z 13010KT 18/13 A2995 RMK A01 T01780130  RH  075%=      5-min Rain = 0
KREE 171200Z 13010KT 18/13 A2996 RMK A01 T01770130  RH  075%=      5-min Rain = 0
KREE 171205Z 13008KT 18/13 A2996 RMK A01 T01780131  RH  075%=      5-min Rain = 0
KREE 171210Z 12009KT 18/13 A2996 RMK A01 T01780131  RH  075%=      5-min Rain = 0
KREE 171215Z 12010KT 18/13 A2996 RMK A01 T01790131  RH  075%=      5-min Rain = 0
KREE 171220Z 13009KT 18/13 A2995 RMK A01 T01810131  RH  074%=      5-min Rain = 0
KREE 171225Z 13010KT 18/13 A2995 RMK A01 T01830131  RH  073%=      5-min Rain = 0
KREE 171230Z 13011KT 18/13 A2995 RMK A01 T01840131  RH  073%=      5-min Rain = 0
KREE 171235Z 13011KT 19/13 A2996 RMK A01 T01860131  RH  072%=      5-min Rain = 0
KREE 171240Z 13012KT 19/13 A2996 RMK A01 T01880131  RH  071%=      5-min Rain = 0
KREE 171245Z 13011KT 19/13 A2996 RMK A01 T01910131  RH  070%=      5-min Rain = 0
KREE 171250Z 13010KT 19/13 A2996 RMK A01 T01920131  RH  069%=      5-min Rain = 0
KREE 171255Z 13011KT 19/13 A2996 RMK A01 T01940132  RH  068%=      5-min Rain = 0
KREE 171300Z 13010KT 20/13 A2996 RMK A01 T01970132  RH  067%=      5-min Rain = 0
KREE 171305Z 13012KT 20/13 A2996 RMK A01 T02000131  RH  066%=      5-min Rain = 0
KREE 171310Z 14013KT 20/13 A2996 RMK A01 T02030129  RH  064%=      5-min Rain = 0
KREE 171315Z 14012KT 21/13 A2996 RMK A01 T02060130  RH  063%=      5-min Rain = 0
KREE 171320Z 14012KT 21/13 A2996 RMK A01 T02090130  RH  062%=      5-min Rain = 0
KREE 171325Z 14014G19KT 21/13 A2996 RMK A01 T02100129  RH  061%=      5-min Rain = 0
KREE 171330Z 14014KT 21/13 A2996 RMK A01 T02110129  RH  060%=      5-min Rain = 0
KREE 171335Z 14013KT 21/13 A2996 RMK A01 T02130129  RH  060%=      5-min Rain = 0
KREE 171340Z 15012G18KT 22/13 A2996 RMK A01 T02160130  RH  059%=      5-min Rain = 0
KREE 171345Z 15014KT 22/13 A2996 RMK A01 T02180129  RH  058%=      5-min Rain = 0
KREE 171350Z 15015KT 22/13 A2996 RMK A01 T02200128  RH  057%=      5-min Rain = 0
KREE 171355Z 14016KT 22/13 A2996 RMK A01 T02210127  RH  056%=      5-min Rain = 0
KREE 171400Z 15015KT 22/13 A2996 RMK A01 T02160125  RH  057%=      5-min Rain = 0
KREE 171405Z 15014KT 22/13 A2996 RMK A01 T02160126  RH  058%=      5-min Rain = 0
KREE 171410Z 15013KT 22/13 A2996 RMK A01 T02220127  RH  056%=      5-min Rain = 0
KREE 171415Z 15014KT 23/13 A2996 RMK A01 T02270126  RH  054%=      5-min Rain = 0
KREE 171420Z 16015KT 23/13 A2996 RMK A01 T02260125  RH  054%=      5-min Rain = 0
KREE 171425Z 16015G20KT 23/13 A2996 RMK A01 T02260126  RH  054%=      5-min Rain = 0
KREE 171430Z 15015KT 23/13 A2996 RMK A01 T02320126  RH  052%=      5-min Rain = 0
KREE 171435Z 16017KT 23/13 A2996 RMK A01 T02330126  RH  052%=      5-min Rain = 0
KREE 171440Z 16015KT 23/13 A2996 RMK A01 T02340126  RH  051%=      5-min Rain = 0
KREE 171445Z 16015G20KT 24/13 A2996 RMK A01 T02360126  RH  051%=      5-min Rain = 0
KREE 171450Z 16016G21KT 24/13 A2997 RMK A01 T02380125  RH  050%=      5-min Rain = 0
KREE 171455Z 16014G19KT 24/13 A2996 RMK A01 T02410125  RH  049%=      5-min Rain = 0
KREE 171500Z 15014KT 25/13 A2996 RMK A01 T02450125  RH  048%=      5-min Rain = 0
KREE 171505Z 17015KT 25/12 A2996 RMK A01 T02460124  RH  047%=      5-min Rain = 0
KREE 171510Z 16015KT 25/12 A2996 RMK A01 T02470124  RH  047%=      5-min Rain = 0
KREE 171515Z 17014G19KT 25/12 A2997 RMK A01 T02490124  RH  046%=      5-min Rain = 0
KREE 171520Z 17014KT 25/12 A2997 RMK A01 T02500124  RH  046%=      5-min Rain = 0
KREE 171525Z 16014KT 25/12 A2997 RMK A01 T02540124  RH  045%=      5-min Rain = 0
KREE 171530Z 16015G21KT 25/12 A2997 RMK A01 T02540124  RH  045%=      5-min Rain = 0
KREE 171535Z 17013KT 26/12 A2996 RMK A01 T02550123  RH  045%=      5-min Rain = 0
KREE 171540Z 16014G19KT 26/12 A2996 RMK A01 T02570124  RH  044%=      5-min Rain = 0
KREE 171545Z 15014KT 26/12 A2996 RMK A01 T02610123  RH  043%=      5-min Rain = 0
KREE 171550Z 16015KT 27/12 A2996 RMK A01 T02650122  RH  042%=      5-min Rain = 0
KREE 171555Z 17014KT 27/12 A2996 RMK A01 T02650121  RH  041%=      5-min Rain = 0
KREE 171600Z 16013G19KT 27/12 A2996 RMK A01 T02680120  RH  041%=      5-min Rain = 0
KREE 171605Z 15014G19KT 27/12 A2996 RMK A01 T02720119  RH  039%=      5-min Rain = 0
KREE 171610Z 16014G19KT 27/12 A2996 RMK A01 T02730119  RH  039%=      5-min Rain = 0
KREE 171615Z 16013KT 28/12 A2995 RMK A01 T02760119  RH  038%=      5-min Rain = 0
KREE 171620Z 17013G18KT 28/12 A2995 RMK A01 T02790118  RH  038%=      5-min Rain = 0
KREE 171625Z 16016G22KT 28/12 A2995 RMK A01 T02780117  RH  038%=      5-min Rain = 0
KREE 171630Z 16013G19KT 28/12 A2995 RMK A01 T02820116  RH  036%=      5-min Rain = 0
KREE 171635Z 15014KT 28/12 A2995 RMK A01 T02840117  RH  036%=      5-min Rain = 0
KREE 171640Z 15014G19KT 28/12 A2995 RMK A01 T02840115  RH  036%=      5-min Rain = 0
KREE 171645Z 15013G18KT 28/12 A2995 RMK A01 T02840115  RH  036%=      5-min Rain = 0
KREE 171650Z 16014G19KT 29/12 A2995 RMK A01 T02870115  RH  035%=      5-min Rain = 0
KREE 171655Z 16014G19KT 29/11 A2994 RMK A01 T02890114  RH  034%=      5-min Rain = 0
KREE 171700Z 16014KT 29/11 A2994 RMK A01 T02900114  RH  034%=      5-min Rain = 0
KREE 171705Z 16014KT 30/11 A2994 RMK A01 T02950111  RH  033%=      5-min Rain = 0
KREE 171710Z 15015KT 30/11 A2994 RMK A01 T02980113  RH  032%=      5-min Rain = 0
KREE 171715Z 14015KT 30/11 A2994 RMK A01 T03000111  RH  032%=      5-min Rain = 0
KREE 171720Z 16015G21KT 30/11 A2994 RMK A01 T03020107  RH  030%=      5-min Rain = 0
KREE 171725Z 17014G20KT 30/11 A2994 RMK A01 T03030108  RH  031%=      5-min Rain = 0
KREE 171730Z 16015G20KT 31/11 A2993 RMK A01 T03070105  RH  029%=      5-min Rain = 0
KREE 171735Z 16014KT 31/11 A2993 RMK A01 T03090106  RH  029%=      5-min Rain = 0
KREE 171740Z 17014G19KT 31/11 A2993 RMK A01 T03110105  RH  029%=      5-min Rain = 0
KREE 171745Z 15015G21KT 31/11 A2992 RMK A01 T03140106  RH  028%=      5-min Rain = 0
KREE 171750Z 16016G21KT 31/11 A2992 RMK A01 T03140105  RH  028%=      5-min Rain = 0
KREE 171755Z 16015G23KT 32/10 A2992 RMK A01 T03150104  RH  028%=      5-min Rain = 0
KREE 171800Z 15014KT 32/11 A2992 RMK A01 T03180105  RH  027%=      5-min Rain = 0
KREE 171805Z 17015G20KT 32/10 A2991 RMK A01 T03210103  RH  027%=      5-min Rain = 0
KREE 171810Z 17015G23KT 32/10 A2991 RMK A01 T03230101  RH  026%=      5-min Rain = 0
KREE 171815Z 18013G20KT 32/10 A2991 RMK A01 T03200101  RH  026%=      5-min Rain = 0
KREE 171820Z 16011G17KT 32/10 A2991 RMK A01 T03230102  RH  026%=      5-min Rain = 0
KREE 171825Z 20013G18KT 33/10 A2991 RMK A01 T03260101  RH  026%=      5-min Rain = 0
KREE 171830Z 19013G22KT 33/10 A2991 RMK A01 T03280097  RH  025%=      5-min Rain = 0
KREE 171835Z 19017G24KT 33/10 A299 RMK A01 T03270098  RH  025%=      5-min Rain = 0
KREE 171840Z 19014G22KT 33/10 A299 RMK A01 T03270096  RH  025%=      5-min Rain = 0
KREE 171845Z 19015G21KT 33/10 A299 RMK A01 T03260096  RH  025%=      5-min Rain = 0
KREE 171850Z 19015G23KT 33/10 A299 RMK A01 T03270095  RH  024%=      5-min Rain = 0
KREE 171855Z 19012G18KT 33/10 A299 RMK A01 T03280096  RH  024%=      5-min Rain = 0
KREE 171900Z 17015G21KT 34/10 A2989 RMK A01 T03350097  RH  024%=      5-min Rain = 0
KREE 171905Z 18014G23KT 33/10 A2989 RMK A01 T03330098  RH  024%=      5-min Rain = 0
KREE 171910Z 17016KT 34/10 A2989 RMK A01 T03360096  RH  023%=      5-min Rain = 0
KREE 171915Z 18014KT 34/10 A2989 RMK A01 T03370095  RH  023%=      5-min Rain = 0
KREE 171920Z 18012G19KT 34/09 A2988 RMK A01 T03370094  RH  023%=      5-min Rain = 0
KREE 171925Z 17015G21KT 34/10 A2988 RMK A01 T03430095  RH  022%=      5-min Rain = 0
KREE 171930Z 15017G23KT 35/09 A2987 RMK A01 T03470094  RH  022%=      5-min Rain = 0
KREE 171935Z 16017G22KT 35/09 A2987 RMK A01 T03470088  RH  021%=      5-min Rain = 0
KREE 171940Z 17016G22KT 35/09 A2987 RMK A01 T03460086  RH  021%=      5-min Rain = 0
KREE 171945Z 16015G25KT 34/09 A2987 RMK A01 T03430086  RH  021%=      5-min Rain = 0
KREE 171950Z 16017G22KT 35/09 A2986 RMK A01 T03460085  RH  020%=      5-min Rain = 0
KREE 171955Z 15015G20KT 35/08 A2986 RMK A01 T03470082  RH  020%=      5-min Rain = 0
KREE 172000Z 17013G23KT 35/08 A2985 RMK A01 T03520083  RH  020%=      5-min Rain = 0
KREE 172005Z 17013G23KT 35/09 A2985 RMK A01 T03480085  RH  020%=      5-min Rain = 0
KREE 172010Z 19017G23KT 35/08 A2985 RMK A01 T03520075  RH  019%=      5-min Rain = 0
KREE 172015Z 16013G21KT 35/08 A2984 RMK A01 T03480081  RH  020%=      5-min Rain = 0
KREE 172020Z 15013G19KT 35/08 A2984 RMK A01 T03470084  RH  020%=      5-min Rain = 0
KREE 172025Z 18015G21KT 34/07 A2984 RMK A01 T03400074  RH  020%=      5-min Rain = 0
KREE 172030Z 18015KT 34/07 A2983 RMK A01 T03360068  RH  019%=      5-min Rain = 0
KREE 172035Z 17017G22KT 34/07 A2982 RMK A01 T03350071  RH  020%=      5-min Rain = 0
KREE 172040Z 17012G19KT 33/08 A2982 RMK A01 T03340075  RH  020%=      5-min Rain = 0
KREE 172045Z 17014G21KT 33/07 A2981 RMK A01 T03310070  RH  020%=      5-min Rain = 0
KREE 172050Z 17018KT 33/07 A2981 RMK A01 T03280067  RH  020%=      5-min Rain = 0
KREE 172055Z 18016KT 33/07 A2981 RMK A01 T03260071  RH  021%=      5-min Rain = 0
KREE 172100Z 16012G19KT 32/08 A2981 RMK A01 T03210076  RH  022%=      5-min Rain = 0
KREE 172105Z 17011KT 32/08 A298 RMK A01 T03160080  RH  024%=      5-min Rain = 0
KREE 172110Z 17011KT 31/10 A2981 RMK A01 T03090102  RH  028%=      5-min Rain = 0
KREE 172115Z 18011KT 30/14 A2982 RMK A01 T02970139  RH  039%=      5-min Rain = 0.01
KREE 172120Z 22018G24KT 26/14 A2983 RMK A01 T02640138  RH  047%=      5-min Rain = 0.02
KREE 172125Z 23012G19KT 24/14 A2982 RMK A01 T02360142  RH  057%=      5-min Rain = 0.01
KREE 172130Z 15015G23KT 23/15 A2982 RMK A01 T02330147  RH  060%=      5-min Rain = 0.02
KREE 172135Z 14017KT 24/15 A2982 RMK A01 T02370153  RH  061%=      5-min Rain = 0
KREE 172140Z 11015G20KT 24/15 A2981 RMK A01 T02400152  RH  059%=      5-min Rain = 0
KREE 172145Z 11016KT 24/15 A298 RMK A01 T02390147  RH  057%=      5-min Rain = 0
KREE 172150Z 10012KT 24/15 A2979 RMK A01 T02410153  RH  059%=      5-min Rain = 0
KREE 172155Z 11015KT 26/14 A2978 RMK A01 T02570142  RH  050%=      5-min Rain = 0
KREE 172200Z 11012KT 26/15 A2978 RMK A01 T02620147  RH  050%=      5-min Rain = 0
KREE 172205Z 11011KT 26/15 A2978 RMK A01 T02600151  RH  052%=      5-min Rain = 0
KREE 172210Z 11011KT 26/15 A2978 RMK A01 T02640150  RH  051%=      5-min Rain = 0
KREE 172215Z 12011KT 27/14 A2978 RMK A01 T02720144  RH  047%=      5-min Rain = 0
KREE 172220Z 12011KT 27/14 A2978 RMK A01 T02730138  RH  044%=      5-min Rain = 0
KREE 172225Z 13012KT 27/14 A2978 RMK A01 T02710136  RH  044%=      5-min Rain = 0
KREE 172230Z 13016G22KT 27/13 A2977 RMK A01 T02690129  RH  043%=      5-min Rain = 0
KREE 172235Z 13016G22KT 27/14 A2977 RMK A01 T02710136  RH  044%=      5-min Rain = 0
KREE 172240Z 14017G22KT 28/14 A2977 RMK A01 T02760144  RH  046%=      5-min Rain = 0
KREE 172245Z 16014KT 28/14 A2978 RMK A01 T02750144  RH  045%=      5-min Rain = 0
KREE 172250Z 16013KT 27/14 A2979 RMK A01 T02700142  RH  046%=      5-min Rain = 0
KREE 172255Z 14015KT 27/14 A2979 RMK A01 T02670144  RH  048%=      5-min Rain = 0
KREE 172300Z 15015G20KT 26/15 A298 RMK A01 T02560148  RH  052%=      5-min Rain = 0
KREE 172305Z 15013KT 25/15 A298 RMK A01 T02510148  RH  054%=      5-min Rain = 0
KREE 172310Z 15015G20KT 25/15 A2981 RMK A01 T02500145  RH  053%=      5-min Rain = 0
KREE 172315Z 15017G22KT 25/14 A2981 RMK A01 T02490137  RH  051%=      5-min Rain = 0
KREE 172320Z 15017G23KT 25/13 A2981 RMK A01 T02520134  RH  049%=      5-min Rain = 0
KREE 172325Z 15013KT 25/14 A2981 RMK A01 T02500140  RH  051%=      5-min Rain = 0
KREE 172330Z 16015G21KT 25/12 A2981 RMK A01 T02510124  RH  046%=      5-min Rain = 0
KREE 172335Z 15015KT 25/12 A298 RMK A01 T02540121  RH  045%=      5-min Rain = 0
KREE 172340Z 13016G21KT 25/12 A2979 RMK A01 T02530124  RH  046%=      5-min Rain = 0
KREE 172345Z 12015KT 25/14 A2978 RMK A01 T02470140  RH  052%=      5-min Rain = 0
KREE 172350Z 11015G20KT 25/14 A2978 RMK A01 T02450144  RH  054%=      5-min Rain = 0
KREE 172355Z 12015G20KT 24/14 A2978 RMK A01 T02420143  RH  055%=      5-min Rain = 0
KREE 180000Z 11016KT 24/15 A2977 RMK A01 T02410145  RH  056%=      5-min Rain = 0
KREE 180005Z 11016KT 24/14 A2977 RMK A01 T02420141  RH  054%=      5-min Rain = 0
KREE 180010Z 11016G22KT 24/14 A2978 RMK A01 T02410142  RH  055%=      5-min Rain = 0
KREE 180015Z 13018KT 24/14 A2979 RMK A01 T02410141  RH  055%=      5-min Rain = 0
KREE 180020Z 14017G23KT 24/14 A2979 RMK A01 T02390141  RH  055%=      5-min Rain = 0
KREE 180025Z 13015KT 24/14 A2978 RMK A01 T02370139  RH  055%=      5-min Rain = 0
KREE 180030Z 13016G22KT 24/14 A2978 RMK A01 T02370140  RH  056%=      5-min Rain = 0
KREE 180035Z 13015G20KT 24/14 A2978 RMK A01 T02350141  RH  057%=      5-min Rain = 0
KREE 180040Z 13017KT 23/14 A2977 RMK A01 T02340140  RH  057%=      5-min Rain = 0
KREE 180045Z 12017KT 23/14 A2977 RMK A01 T02340139  RH  056%=      5-min Rain = 0
KREE 180050Z 12018G23KT 23/14 A2977 RMK A01 T02340138  RH  056%=      5-min Rain = 0
KREE 180055Z 12015G21KT 23/14 A2977 RMK A01 T02340140  RH  057%=      5-min Rain = 0
KREE 180100Z 12017G28KT 23/14 A2977 RMK A01 T02340136  RH  055%=      5-min Rain = 0
KREE 180105Z 12019G25KT 23/13 A2978 RMK A01 T02330130  RH  054%=      5-min Rain = 0
KREE 180110Z 12016KT 23/13 A2978 RMK A01 T02280134  RH  056%=      5-min Rain = 0
KREE 180115Z 12017KT 23/13 A2978 RMK A01 T02250134  RH  058%=      5-min Rain = 0
KREE 180120Z 12014G19KT 22/13 A2978 RMK A01 T02210134  RH  059%=      5-min Rain = 0
KREE 180125Z 12017KT 22/13 A2978 RMK A01 T02180130  RH  058%=      5-min Rain = 0
KREE 180130Z 12017KT 22/13 A2979 RMK A01 T02180126  RH  057%=      5-min Rain = 0
KREE 180135Z 12016G22KT 22/12 A2979 RMK A01 T02170124  RH  057%=      5-min Rain = 0
KREE 180140Z 12017KT 22/12 A2979 RMK A01 T02150122  RH  056%=      5-min Rain = 0
KREE 180145Z 12016KT 22/12 A2979 RMK A01 T02150121  RH  056%=      5-min Rain = 0
KREE 180150Z 12018KT 22/12 A2979 RMK A01 T02150119  RH  055%=      5-min Rain = 0
KREE 180155Z 12017KT 21/12 A298 RMK A01 T02130121  RH  057%=      5-min Rain = 0
KREE 180200Z 12016KT 21/12 A298 RMK A01 T02100124  RH  059%=      5-min Rain = 0
KREE 180205Z 12015KT 21/13 A2981 RMK A01 T02080126  RH  060%=      5-min Rain = 0
KREE 180210Z 12016KT 21/13 A2981 RMK A01 T02070126  RH  061%=      5-min Rain = 0
KREE 180215Z 12015G20KT 21/13 A2982 RMK A01 T02070127  RH  061%=      5-min Rain = 0
KREE 180220Z 11015G20KT 20/13 A2982 RMK A01 T02040129  RH  063%=      5-min Rain = 0
KREE 180225Z 11015KT 20/13 A2983 RMK A01 T02030132  RH  065%=      5-min Rain = 0
KREE 180230Z 12018G25KT 20/13 A2983 RMK A01 T02030133  RH  065%=      5-min Rain = 0
KREE 180235Z 12019G26KT 20/13 A2984 RMK A01 T02040133  RH  065%=      5-min Rain = 0
KREE 180240Z 11017G22KT 20/13 A2984 RMK A01 T02030133  RH  065%=      5-min Rain = 0
KREE 180245Z 11016G21KT 20/13 A2984 RMK A01 T02030132  RH  065%=      5-min Rain = 0
KREE 180250Z 11018KT 20/13 A2984 RMK A01 T02030132  RH  065%=      5-min Rain = 0
KREE 180255Z 11017KT 20/13 A2984 RMK A01 T02020132  RH  065%=      5-min Rain = 0
KREE 180300Z 12017KT 20/13 A2984 RMK A01 T02020131  RH  065%=      5-min Rain = 0
KREE 180305Z 12018KT 20/13 A2985 RMK A01 T02020130  RH  064%=      5-min Rain = 0
KREE 180310Z 12017KT 20/13 A2985 RMK A01 T02010131  RH  065%=      5-min Rain = 0
KREE 180315Z 12017G23KT 20/13 A2985 RMK A01 T02010131  RH  065%=      5-min Rain = 0
KREE 180320Z 11014G19KT 20/13 A2985 RMK A01 T02000131  RH  066%=      5-min Rain = 0
KREE 180325Z 11013KT 20/13 A2985 RMK A01 T01970131  RH  067%=      5-min Rain = 0
KREE 180330Z 11015KT 20/13 A2986 RMK A01 T01950131  RH  068%=      5-min Rain = 0
KREE 180335Z 11017G23KT 20/13 A2986 RMK A01 T01960131  RH  067%=      5-min Rain = 0
KREE 180340Z 12017G23KT 20/13 A2986 RMK A01 T01980133  RH  067%=      5-min Rain = 0
KREE 180345Z 12016G21KT 20/13 A2986 RMK A01 T01980134  RH  068%=      5-min Rain = 0
KREE 180350Z 12016G23KT 20/14 A2986 RMK A01 T01980135  RH  068%=      5-min Rain = 0
KREE 180355Z 12015KT 20/14 A2986 RMK A01 T01970136  RH  069%=      5-min Rain = 0
KREE 180400Z 12016G21KT 20/14 A2987 RMK A01 T01960136  RH  070%=      5-min Rain = 0
KREE 180405Z 11015KT 20/14 A2987 RMK A01 T01950137  RH  070%=      5-min Rain = 0
KREE 180410Z 12018KT 20/14 A2987 RMK A01 T01960136  RH  070%=      5-min Rain = 0
KREE 180415Z 12015KT 19/14 A2988 RMK A01 T01940137  RH  071%=      5-min Rain = 0
KREE 180420Z 12015KT 19/14 A2988 RMK A01 T01920138  RH  072%=      5-min Rain = 0
KREE 180425Z 12014KT 19/14 A2988 RMK A01 T01910138  RH  073%=      5-min Rain = 0
KREE 180430Z 11015KT 19/14 A2989 RMK A01 T01890138  RH  074%=      5-min Rain = 0
KREE 180435Z 11016KT 19/14 A2989 RMK A01 T01880138  RH  074%=      5-min Rain = 0
KREE 180440Z 11017KT 19/14 A2989 RMK A01 T01870137  RH  074%=      5-min Rain = 0
KREE 180445Z 11015G20KT 19/14 A2989 RMK A01 T01870137  RH  074%=      5-min Rain = 0
KREE 180450Z 12014G21KT 19/14 A2989 RMK A01 T01870136  RH  074%=      5-min Rain = 0
KREE 180455Z 11015G20KT 19/14 A2989 RMK A01 T01870136  RH  073%=      5-min Rain = 0

Page generated in 0.0091 seconds.